Time;durP1;ratioP1;P1;durP2;ratioP2;P2;SDS_P1;SDS_P2;PMS_P1;PMS_P2;Temp;Humidity;BMP_temperature;BMP_pressure;BME280_temperature;BME280_humidity;BME280_pressure;Samples;Min_cycle;Max_cycle;Signal;HPM_P1;HPM_P2
2022/07/02 00:00:04;;;;;;;5.53;1.92;;;;;;;16.70;91.19;99036.00;4907454;29;20024;-83
2022/07/02 00:02:35;;;;;;;5.55;2.10;;;;;;;16.69;91.55;99044.97;4884768;29;20028;-83
2022/07/02 00:05:06;;;;;;;9.13;1.85;;;;;;;16.62;92.24;99049.59;4889947;29;20383;-83
2022/07/02 00:07:32;;;;;;;8.05;2.10;;;;;;;16.53;92.58;99043.06;4890503;29;20040;-82
2022/07/02 00:09:59;;;;;;;3.85;1.80;;;;;;;16.49;92.85;99055.97;4908013;29;20040;-83
2022/07/02 00:12:28;;;;;;;7.00;2.00;;;;;;;16.40;93.76;99058.16;4909355;29;20076;-84
2022/07/02 00:14:56;;;;;;;6.43;2.03;;;;;;;16.32;94.35;99050.59;4905495;29;20479;-84
2022/07/02 00:17:22;;;;;;;7.80;2.30;;;;;;;16.34;94.59;99048.50;4901318;29;20495;-83
2022/07/02 00:19:50;;;;;;;4.05;1.90;;;;;;;16.36;94.84;99038.47;4885802;29;20040;-85
2022/07/02 00:22:16;;;;;;;4.80;1.80;;;;;;;16.44;95.29;99036.50;4909740;29;20055;-84
2022/07/02 00:24:43;;;;;;;5.30;2.22;;;;;;;16.41;95.44;99043.09;4893933;29;20021;-84
2022/07/02 00:27:10;;;;;;;3.05;2.10;;;;;;;16.44;96.25;99036.50;4906446;29;20496;-84
2022/07/02 00:29:38;;;;;;;7.57;2.45;;;;;;;16.33;96.63;99032.84;4889734;29;20487;-83
2022/07/02 00:32:05;;;;;;;3.40;2.03;;;;;;;16.21;97.01;99027.56;4889567;29;20039;-84
2022/07/02 00:34:33;;;;;;;7.38;2.33;;;;;;;16.56;96.67;99029.34;4912291;29;20028;-83
2022/07/02 00:36:59;;;;;;;7.72;2.53;;;;;;;16.65;96.71;99027.94;4889189;29;20067;-84
2022/07/02 00:39:25;;;;;;;4.80;2.30;;;;;;;16.81;96.42;99022.94;4904524;29;20456;-83
2022/07/02 00:41:52;;;;;;;3.17;2.65;;;;;;;16.59;96.79;99025.41;4891535;29;20483;-84
2022/07/02 00:44:19;;;;;;;6.90;3.65;;;;;;;16.68;96.53;99016.84;4904253;29;20037;-83
2022/07/02 00:46:46;;;;;;;4.90;3.53;;;;;;;16.60;96.54;99008.47;4886558;29;20039;-84
2022/07/02 00:49:12;;;;;;;8.43;3.75;;;;;;;16.91;95.80;99011.72;4886670;29;20040;-84
2022/07/02 00:51:38;;;;;;;6.43;3.30;;;;;;;16.92;95.65;98998.22;4907178;29;20104;-84
2022/07/02 00:54:05;;;;;;;4.57;3.22;;;;;;;16.80;95.56;98992.97;4904740;29;20115;-84
2022/07/02 00:56:31;;;;;;;4.65;3.58;;;;;;;16.88;95.11;99001.59;4903562;29;20036;-84
2022/07/02 00:58:57;;;;;;;8.00;4.00;;;;;;;16.95;95.18;98997.75;4903054;29;20037;-84
2022/07/02 01:01:23;;;;;;;6.03;3.78;;;;;;;16.81;94.81;98996.41;4906876;29;20495;-85
2022/07/02 01:03:51;;;;;;;5.32;3.30;;;;;;;16.96;94.57;98991.41;4904003;29;20036;-84
2022/07/02 01:06:17;;;;;;;8.52;3.72;;;;;;;16.97;94.53;98989.53;4910617;29;20087;-84
2022/07/02 01:11:32;;;;;;;6.57;3.50;;;;;;;16.76;93.92;98975.91;4888256;29;20032;-85
2022/07/02 01:13:58;;;;;;;6.38;3.00;;;;;;;16.74;93.01;98972.69;4902718;29;20488;-86
2022/07/02 01:16:24;;;;;;;7.28;2.90;;;;;;;16.79;93.33;98970.13;4904897;29;20028;-84
2022/07/02 01:18:50;;;;;;;6.50;2.85;;;;;;;16.92;92.84;98977.03;4903861;29;20043;-83
2022/07/02 01:21:15;;;;;;;10.07;3.90;;;;;;;16.45;92.81;98978.00;4903426;29;20037;-84
2022/07/02 01:23:41;;;;;;;6.70;2.78;;;;;;;16.66;92.98;98981.03;4902737;29;20522;-84
2022/07/02 01:26:07;;;;;;;10.95;2.97;;;;;;;16.45;93.00;98979.81;4905421;29;20091;-85
2022/07/02 01:28:33;;;;;;;4.32;2.30;;;;;;;16.50;92.59;98970.16;4905212;29;20052;-85
2022/07/02 01:30:59;;;;;;;4.88;2.60;;;;;;;16.21;93.37;98977.22;4888142;29;20119;-85
2022/07/02 01:33:24;;;;;;;7.75;3.17;;;;;;;16.27;92.92;98973.66;4911373;29;20035;-85
2022/07/02 01:35:50;;;;;;;4.05;2.50;;;;;;;16.34;93.01;98968.22;4904982;29;20384;-84
2022/07/02 01:38:15;;;;;;;4.93;2.83;;;;;;;16.48;91.97;98969.56;4912013;29;20153;-84
2022/07/02 01:40:41;;;;;;;4.38;2.58;;;;;;;16.28;92.92;98964.66;4910565;29;20036;-83
2022/07/02 01:43:07;;;;;;;5.53;2.38;;;;;;;16.31;92.45;98953.63;4911085;29;20028;-85
2022/07/02 01:45:33;;;;;;;4.05;2.33;;;;;;;16.33;92.38;98967.44;4906229;29;20047;-83
2022/07/02 01:47:58;;;;;;;5.82;2.70;;;;;;;16.22;93.36;98966.41;4906616;29;20044;-84
2022/07/02 01:50:24;;;;;;;6.82;2.42;;;;;;;16.15;93.66;98957.00;4910739;29;20040;-85
2022/07/02 01:52:51;;;;;;;6.50;2.60;;;;;;;16.00;94.02;98955.63;4907129;29;20030;-84
2022/07/02 01:55:17;;;;;;;7.10;2.72;;;;;;;15.67;94.66;98960.44;4892778;29;20052;-83
2022/07/02 01:57:43;;;;;;;4.68;2.63;;;;;;;15.83;95.02;98948.34;4909342;29;20491;-82
2022/07/02 02:00:11;;;;;;;6.55;2.28;;;;;;;15.71;94.74;98952.84;4892057;29;20061;-84
2022/07/02 02:02:38;;;;;;;3.78;2.33;;;;;;;15.57;95.50;98955.72;4908800;29;20114;-84
2022/07/02 02:05:05;;;;;;;5.28;2.30;;;;;;;15.59;94.75;98946.75;4909055;29;20037;-84
2022/07/02 02:07:31;;;;;;;7.75;2.60;;;;;;;15.67;95.13;98946.41;4906090;29;20032;-83
2022/07/02 02:09:57;;;;;;;3.97;2.10;;;;;;;15.53;95.60;98933.41;4908438;29;20048;-85
2022/07/02 02:12:23;;;;;;;3.70;2.15;;;;;;;15.41;96.00;98930.75;4890851;29;20059;-83
2022/07/02 02:14:49;;;;;;;2.85;1.90;;;;;;;15.44;96.01;98939.28;4909247;29;20953;-83
2022/07/02 02:17:15;;;;;;;6.82;2.55;;;;;;;15.33;96.54;98940.84;4889874;29;20067;-85
2022/07/02 02:19:40;;;;;;;4.28;2.50;;;;;;;15.34;97.05;98926.63;4905305;29;20066;-83
2022/07/02 02:22:06;;;;;;;7.15;2.83;;;;;;;15.16;97.28;98943.34;4906303;29;20035;-83
2022/07/02 02:24:31;;;;;;;9.88;2.33;;;;;;;15.13;97.61;98934.03;4909954;29;20089;-84
2022/07/02 02:26:59;;;;;;;4.68;2.33;;;;;;;15.10;97.58;98935.31;4907294;29;20036;-83
2022/07/02 02:29:25;;;;;;;5.50;2.40;;;;;;;15.11;97.76;98936.09;4905103;29;20534;-83
2022/07/02 02:31:50;;;;;;;4.97;2.45;;;;;;;15.06;98.30;98939.44;4905911;29;20111;-83
2022/07/02 02:34:16;;;;;;;5.53;2.35;;;;;;;14.99;98.41;98931.59;4911028;29;20039;-84
2022/07/02 02:36:41;;;;;;;7.25;2.45;;;;;;;14.82;99.22;98943.84;4911355;29;20067;-85
2022/07/02 02:39:07;;;;;;;4.38;2.40;;;;;;;14.97;99.06;98935.50;4893828;29;20060;-84
2022/07/02 02:41:33;;;;;;;5.72;3.03;;;;;;;14.91;99.94;98929.28;4907163;29;20029;-84
2022/07/02 02:43:59;;;;;;;5.57;2.50;;;;;;;14.82;100.00;98928.78;4895767;29;20125;-84
2022/07/02 02:46:24;;;;;;;7.07;2.72;;;;;;;14.91;100.00;98937.19;4908520;29;20035;-84
2022/07/02 02:48:50;;;;;;;5.68;2.38;;;;;;;14.68;100.00;98933.41;4911548;29;20059;-83
2022/07/02 02:51:15;;;;;;;8.63;3.10;;;;;;;14.79;100.00;98939.81;4898127;29;20123;-83
2022/07/02 02:53:44;;;;;;;5.70;2.60;;;;;;;14.86;100.00;98934.44;4907843;29;20471;-84
2022/07/02 02:56:11;;;;;;;5.65;2.55;;;;;;;14.86;100.00;98934.44;4892412;29;20163;-84
2022/07/02 02:58:38;;;;;;;7.32;2.97;;;;;;;14.78;100.00;98942.69;4908126;29;20036;-82
2022/07/02 03:01:04;;;;;;;6.13;2.55;;;;;;;14.81;100.00;98929.81;4904779;29;20037;-82
2022/07/02 03:03:29;;;;;;;5.20;2.25;;;;;;;14.90;100.00;98935.59;4904308;29;20083;-83
2022/07/02 03:05:55;;;;;;;6.78;2.33;;;;;;;14.83;100.00;98935.69;4906657;29;20558;-84
2022/07/02 03:08:21;;;;;;;8.25;2.60;;;;;;;14.80;100.00;98927.41;4906087;29;20066;-84
2022/07/02 03:10:47;;;;;;;6.85;2.55;;;;;;;14.73;100.00;98926.69;4889062;29;20039;-85
2022/07/02 03:13:14;;;;;;;5.43;2.25;;;;;;;14.67;100.00;98913.31;4908113;29;20131;-85
2022/07/02 03:15:40;;;;;;;5.80;2.75;;;;;;;14.64;100.00;98916.41;4905187;29;20028;-85
2022/07/02 03:18:05;;;;;;;5.43;2.30;;;;;;;14.53;100.00;98919.81;4907391;29;20060;-85
2022/07/02 03:20:32;;;;;;;7.18;2.55;;;;;;;14.52;100.00;98921.66;4905520;29;20455;-83
2022/07/02 03:22:58;;;;;;;3.83;2.25;;;;;;;14.42;100.00;98919.53;4887979;29;20039;-83
2022/07/02 03:25:24;;;;;;;4.88;2.30;;;;;;;14.48;100.00;98917.03;4902049;29;20084;-83
2022/07/02 03:27:49;;;;;;;3.97;2.00;;;;;;;14.55;100.00;98918.56;4907639;29;20036;-83
2022/07/02 03:30:15;;;;;;;3.55;2.13;;;;;;;14.49;100.00;98921.28;4907344;29;20036;-83
2022/07/02 03:32:41;;;;;;;4.03;2.17;;;;;;;14.47;100.00;98920.69;4902336;29;20123;-85
2022/07/02 03:35:08;;;;;;;6.00;2.15;;;;;;;14.50;100.00;98917.63;4890726;29;20021;-84
2022/07/02 03:37:33;;;;;;;6.95;2.22;;;;;;;14.39;100.00;98920.00;4892198;29;20119;-83
2022/07/02 03:39:59;;;;;;;4.43;2.30;;;;;;;14.28;100.00;98926.00;4907923;29;20142;-84
2022/07/02 03:42:24;;;;;;;6.75;2.60;;;;;;;14.28;100.00;98932.09;4906138;29;20068;-85
2022/07/02 03:44:50;;;;;;;3.85;2.38;;;;;;;14.33;100.00;98926.13;4887543;29;20074;-84
2022/07/02 03:47:16;;;;;;;8.25;2.80;;;;;;;14.31;100.00;98922.13;4891921;29;20449;-84
2022/07/02 03:49:43;;;;;;;4.60;2.13;;;;;;;14.07;100.00;98922.00;4905695;29;20048;-84
2022/07/02 03:52:08;;;;;;;4.45;2.53;;;;;;;14.22;100.00;98921.63;4885141;29;20028;-84
2022/07/02 03:54:35;;;;;;;5.00;2.50;;;;;;;14.25;100.00;98923.81;4907519;29;20063;-85
2022/07/02 03:57:01;;;;;;;5.82;2.40;;;;;;;14.31;100.00;98919.47;4905569;29;20028;-84
2022/07/02 03:59:26;;;;;;;7.78;2.58;;;;;;;14.28;100.00;98920.72;4889302;29;20037;-83
2022/07/02 04:01:54;;;;;;;5.45;3.08;;;;;;;14.12;100.00;98901.81;4906820;29;20391;-84
2022/07/02 04:04:21;;;;;;;5.20;2.85;;;;;;;14.29;100.00;98914.41;4874057;29;20116;-84
2022/07/02 04:06:46;;;;;;;11.88;2.80;;;;;;;14.29;100.00;98909.13;4902502;29;20115;-83
2022/07/02 04:09:12;;;;;;;4.63;2.38;;;;;;;14.35;100.00;98905.63;4888840;29;20039;-86
2022/07/02 04:11:41;;;;;;;8.63;2.67;;;;;;;14.28;100.00;98910.16;4891529;29;20044;-84
2022/07/02 04:14:07;;;;;;;6.63;2.50;;;;;;;14.46;100.00;98908.53;4905912;29;20051;-85
2022/07/02 04:16:33;;;;;;;5.95;2.80;;;;;;;14.47;100.00;98915.41;4905580;29;20486;-84
2022/07/02 04:19:01;;;;;;;5.90;3.03;;;;;;;14.53;100.00;98909.25;4903489;29;20529;-86
2022/07/02 04:21:27;;;;;;;8.45;3.00;;;;;;;14.41;100.00;98899.44;4888210;29;20060;-85
2022/07/02 04:23:52;;;;;;;7.35;3.20;;;;;;;14.44;100.00;98911.38;4887718;29;20028;-84
2022/07/02 04:26:18;;;;;;;8.48;3.17;;;;;;;14.50;100.00;98905.22;4911960;29;20087;-84
2022/07/02 04:28:44;;;;;;;6.93;2.80;;;;;;;14.67;100.00;98910.69;4905830;29;20491;-85
2022/07/02 04:31:09;;;;;;;4.88;2.80;;;;;;;14.68;100.00;98906.22;4888948;29;20507;-84
2022/07/02 04:33:35;;;;;;;7.32;3.10;;;;;;;14.64;100.00;98913.78;4904193;29;20036;-84
2022/07/02 04:36:01;;;;;;;9.73;3.88;;;;;;;14.73;100.00;98913.47;4888069;29;20156;-84
2022/07/02 04:38:26;;;;;;;9.38;3.45;;;;;;;14.75;100.00;98911.44;4906812;29;20036;-83
2022/07/02 04:40:52;;;;;;;10.52;4.00;;;;;;;14.70;100.00;98920.78;4906683;29;20039;-85
2022/07/02 04:43:18;;;;;;;8.77;3.47;;;;;;;14.84;100.00;98916.19;4902897;29;20032;-85
2022/07/02 04:45:44;;;;;;;7.85;3.70;;;;;;;14.98;100.00;98922.06;4874018;29;20431;-85
2022/07/02 04:48:10;;;;;;;6.93;3.10;;;;;;;14.93;100.00;98918.50;4909993;29;20170;-86
2022/07/02 04:50:35;;;;;;;8.07;3.40;;;;;;;15.08;100.00;98920.69;4903974;29;20028;-84
2022/07/02 04:53:01;;;;;;;8.27;3.80;;;;;;;15.05;100.00;98921.97;4905236;29;20040;-84
2022/07/02 04:55:28;;;;;;;9.55;4.00;;;;;;;15.30;100.00;98922.78;4888693;29;20028;-84
2022/07/02 04:57:53;;;;;;;8.00;3.85;;;;;;;15.43;100.00;98917.28;4888490;29;20046;-85
2022/07/02 05:00:19;;;;;;;7.25;3.58;;;;;;;15.58;100.00;98919.47;4885897;29;20048;-86
2022/07/02 05:02:44;;;;;;;12.23;3.88;;;;;;;15.41;100.00;98924.66;4903929;29;20084;-84
2022/07/02 05:05:10;;;;;;;8.05;3.95;;;;;;;15.53;100.00;98920.19;4891422;29;21173;-84
2022/07/02 05:07:36;;;;;;;7.35;3.90;;;;;;;15.60;100.00;98921.91;4911671;29;20031;-86
2022/07/02 05:10:02;;;;;;;10.50;4.65;;;;;;;15.65;100.00;98920.19;4909272;29;20029;-85
2022/07/02 05:12:27;;;;;;;7.85;4.40;;;;;;;15.72;100.00;98909.47;4910018;29;20044;-83
2022/07/02 05:14:53;;;;;;;8.18;4.22;;;;;;;15.90;100.00;98899.81;4906338;29;20080;-84
2022/07/02 05:17:19;;;;;;;8.68;4.00;;;;;;;15.91;100.00;98898.78;4911252;29;20036;-84
2022/07/02 05:19:44;;;;;;;8.35;3.72;;;;;;;15.99;100.00;98907.16;4894142;29;20064;-83
2022/07/02 05:22:11;;;;;;;15.70;4.60;;;;;;;15.99;100.00;98901.06;4889642;29;20039;-82
2022/07/02 05:24:36;;;;;;;10.70;4.30;;;;;;;16.03;100.00;98907.50;4908565;29;20040;-83
2022/07/02 05:27:02;;;;;;;6.93;3.88;;;;;;;15.99;100.00;98907.16;4893850;29;20040;-83
2022/07/02 05:29:28;;;;;;;8.88;4.80;;;;;;;16.02;100.00;98902.47;4908982;29;20024;-85
2022/07/02 05:31:53;;;;;;;10.20;3.97;;;;;;;16.00;100.00;98915.91;4911026;29;20032;-85
2022/07/02 05:34:19;;;;;;;10.02;4.20;;;;;;;15.94;100.00;98906.25;4905695;29;20419;-82
2022/07/02 05:36:44;;;;;;;7.10;3.95;;;;;;;16.01;100.00;98908.75;4907136;29;20047;-82
2022/07/02 05:39:10;;;;;;;7.45;4.20;;;;;;;16.05;100.00;98907.28;4906594;29;20028;-82
2022/07/02 05:41:35;;;;;;;8.55;4.05;;;;;;;16.07;100.00;98907.84;4887858;29;20062;-82
2022/07/02 05:44:01;;;;;;;11.10;3.80;;;;;;;15.98;100.00;98900.25;4893318;29;20041;-85
2022/07/02 05:46:26;;;;;;;8.38;3.85;;;;;;;16.25;100.00;98906.88;4908015;29;20029;-85
2022/07/02 05:48:52;;;;;;;9.00;4.53;;;;;;;16.35;100.00;98904.44;4905573;29;20119;-85
2022/07/02 05:51:18;;;;;;;5.57;4.00;;;;;;;16.39;100.00;98913.50;4905273;29;20036;-84
2022/07/02 05:53:44;;;;;;;5.10;3.47;;;;;;;16.61;100.00;98898.81;4891806;29;20475;-85
2022/07/02 05:56:10;;;;;;;9.60;4.70;;;;;;;16.68;100.00;98897.59;4908398;29;20039;-84
2022/07/02 05:58:36;;;;;;;8.02;4.05;;;;;;;16.60;100.00;98908.59;4905935;29;20475;-85
2022/07/02 06:01:01;;;;;;;4.95;3.60;;;;;;;16.50;100.00;98903.09;4911258;29;20092;-87
2022/07/02 06:03:27;;;;;;;11.07;3.22;;;;;;;16.62;100.00;98906.50;4905446;29;20111;-86
2022/07/02 06:08:39;;;;;;;4.57;3.45;;;;;;;16.77;100.00;98919.22;4888339;29;20457;-86
2022/07/02 06:11:04;;;;;;;8.00;3.60;;;;;;;16.70;100.00;98914.09;4889053;29;20047;-86
2022/07/02 06:13:30;;;;;;;8.43;3.30;;;;;;;16.85;100.00;98928.63;4891957;29;20049;-88
2022/07/02 06:15:55;;;;;;;9.07;3.28;;;;;;;16.88;100.00;98925.50;4894536;29;20032;-87
2022/07/02 06:18:21;;;;;;;8.38;3.13;;;;;;;16.84;100.00;98921.72;4891568;29;20040;-87
2022/07/02 06:20:46;;;;;;;9.50;3.55;;;;;;;17.07;100.00;98934.09;4890663;29;20076;-86
2022/07/02 06:23:12;;;;;;;5.25;3.08;;;;;;;16.90;100.00;98917.31;4877981;29;20040;-87
2022/07/02 06:25:37;;;;;;;4.78;2.92;;;;;;;17.17;100.00;98922.84;4884126;29;20048;-88
2022/07/02 06:28:04;;;;;;;6.07;2.85;;;;;;;17.23;100.00;98927.16;4881395;29;20043;-86
2022/07/02 06:30:29;;;;;;;5.35;2.60;;;;;;;17.32;100.00;98929.44;4895016;29;20096;-88
2022/07/02 06:32:55;;;;;;;6.30;2.60;;;;;;;17.21;100.00;98921.31;4880848;29;20036;-87
2022/07/02 06:35:21;;;;;;;7.32;3.03;;;;;;;17.23;100.00;98934.34;4891854;29;20032;-86
2022/07/02 06:37:47;;;;;;;6.38;2.80;;;;;;;17.11;100.00;98937.06;4891805;29;20028;-86
2022/07/02 06:40:12;;;;;;;5.68;2.83;;;;;;;17.38;100.00;98939.88;4913121;29;20040;-86
2022/07/02 06:42:38;;;;;;;7.47;2.53;;;;;;;17.41;100.00;98930.63;4889733;29;20036;-87
2022/07/02 06:45:04;;;;;;;4.38;2.78;;;;;;;17.41;100.00;98930.63;4889319;29;20032;-85
2022/07/02 06:47:31;;;;;;;7.18;2.75;;;;;;;17.33;100.00;98941.66;4886044;29;20376;-85
2022/07/02 06:49:57;;;;;;;4.15;2.60;;;;;;;17.56;100.00;98943.31;4886452;29;20032;-86
2022/07/02 06:52:24;;;;;;;7.68;3.10;;;;;;;17.49;100.00;98950.66;4906974;29;20668;-84
2022/07/02 06:54:49;;;;;;;6.28;2.80;;;;;;;17.62;100.00;98944.19;4904408;29;20543;-83
2022/07/02 06:57:15;;;;;;;4.40;2.42;;;;;;;17.58;100.00;98933.25;4902905;29;20035;-86
2022/07/02 06:59:43;;;;;;;6.20;2.42;;;;;;;17.66;100.00;98937.34;4889728;29;20483;-86
2022/07/02 07:02:09;;;;;;;4.20;3.10;;;;;;;17.42;100.00;98956.94;4907032;29;20111;-85
2022/07/02 07:04:36;;;;;;;5.35;2.80;;;;;;;17.08;100.00;98956.09;4907913;29;20119;-85
2022/07/02 07:07:04;;;;;;;4.75;2.72;;;;;;;17.23;100.00;98959.00;4908077;29;20047;-84
2022/07/02 07:09:30;;;;;;;5.63;2.70;;;;;;;17.72;100.00;98960.28;4905724;29;20036;-84
2022/07/02 07:11:56;;;;;;;5.53;2.80;;;;;;;17.94;100.00;98951.56;4909018;29;20040;-83
2022/07/02 07:14:28;;;;;;;3.88;2.42;;;;;;;18.13;100.00;98939.63;4902260;29;20051;-83
2022/07/02 07:16:54;;;;;;;4.28;2.13;;;;;;;18.47;100.00;98949.31;4909829;29;20079;-84
2022/07/02 07:19:20;;;;;;;6.90;2.63;;;;;;;18.74;100.00;98942.41;4910297;29;20032;-83
2022/07/02 07:21:46;;;;;;;5.97;3.53;;;;;;;18.97;100.00;98950.06;4901959;29;20503;-84
2022/07/02 07:24:11;;;;;;;4.28;1.92;;;;;;;18.95;100.00;98954.84;4884019;29;20433;-84
2022/07/02 07:26:38;;;;;;;2.95;1.80;;;;;;;18.80;100.00;98954.69;4887137;29;20040;-83
2022/07/02 07:29:06;;;;;;;3.72;1.85;;;;;;;19.05;100.00;98948.03;4898118;29;20069;-83
2022/07/02 07:31:32;;;;;;;4.75;1.77;;;;;;;19.38;100.00;98962.13;4903313;29;20036;-83
2022/07/02 07:33:58;;;;;;;3.60;1.73;;;;;;;19.68;100.00;98958.09;4870774;29;20068;-83
2022/07/02 07:36:26;;;;;;;3.80;1.65;;;;;;;19.72;100.00;98945.06;4905831;29;20053;-83
2022/07/02 07:38:52;;;;;;;2.55;1.45;;;;;;;19.52;100.00;98955.34;4888769;29;20036;-82
2022/07/02 07:41:20;;;;;;;3.40;1.42;;;;;;;19.62;100.00;98957.25;4901618;29;20031;-82
2022/07/02 07:43:46;;;;;;;4.05;1.60;;;;;;;19.84;100.00;98959.78;4906611;29;20424;-81
2022/07/02 07:46:11;;;;;;;2.00;1.40;;;;;;;19.74;100.00;98959.72;4905553;29;20033;-82
2022/07/02 07:48:37;;;;;;;2.17;1.10;;;;;;;19.90;100.00;98951.84;4886633;29;20466;-80
2022/07/02 07:51:05;;;;;;;3.47;1.00;;;;;;;19.72;100.00;98959.19;4887779;29;20023;-81
2022/07/02 07:53:31;;;;;;;1.40;1.00;;;;;;;19.90;100.00;98962.50;4900088;29;20394;-82
2022/07/02 07:55:57;;;;;;;1.15;0.88;;;;;;;20.07;100.00;98957.00;4906707;29;20115;-82
2022/07/02 07:58:23;;;;;;;1.38;1.10;;;;;;;20.24;100.00;98959.47;4906156;29;20088;-84
2022/07/02 08:00:50;;;;;;;2.97;1.00;;;;;;;20.16;100.00;98959.97;4902676;29;20143;-84
2022/07/02 08:03:18;;;;;;;0.60;0.60;;;;;;;20.43;100.00;98969.66;4901909;29;20071;-83
2022/07/02 08:05:53;;;;;;;0.70;0.70;;;;;;;20.04;100.00;98963.63;4886944;29;20062;-82
2022/07/02 08:08:20;;;;;;;1.50;0.90;;;;;;;19.94;100.00;98959.06;4904189;29;20147;-82
2022/07/02 08:10:46;;;;;;;1.00;0.77;;;;;;;19.78;100.00;98949.38;4890592;29;20082;-84
2022/07/02 08:13:15;;;;;;;1.50;1.10;;;;;;;19.72;100.00;98943.22;4902000;29;20084;-83
2022/07/02 08:15:51;;;;;;;1.10;1.00;;;;;;;19.88;100.00;98954.75;4874623;29;20115;-82
2022/07/02 08:18:23;;;;;;;0.95;0.88;;;;;;;20.19;100.00;98948.78;4906309;29;20090;-83
2022/07/02 08:24:01;;;;;;;1.15;1.08;;;;;;;20.23;100.00;98934.69;4902434;29;20453;-83
2022/07/02 08:26:26;;;;;;;1.17;1.02;;;;;;;20.27;100.00;98950.97;4898622;29;20132;-82
2022/07/02 08:28:52;;;;;;;1.30;1.20;;;;;;;19.90;100.00;98946.50;4909756;29;20112;-82
2022/07/02 08:31:17;;;;;;;2.88;1.10;;;;;;;19.54;100.00;98961.19;4904878;29;20472;-83
2022/07/02 08:33:43;;;;;;;1.60;1.00;;;;;;;20.05;100.00;98965.25;4886818;29;20033;-83
2022/07/02 08:36:10;;;;;;;1.15;1.00;;;;;;;19.61;100.00;98960.97;4904467;29;20032;-83
2022/07/02 08:38:35;;;;;;;2.88;0.93;;;;;;;19.94;100.00;98953.72;4908751;29;20036;-83
2022/07/02 08:41:02;;;;;;;1.40;1.20;;;;;;;20.17;100.00;98946.41;4913039;29;20509;-82
2022/07/02 08:43:31;;;;;;;1.30;1.05;;;;;;;20.10;100.00;98948.47;4911132;29;20076;-84
2022/07/02 08:46:02;;;;;;;1.17;1.08;;;;;;;20.07;100.00;98952.47;4893362;29;20032;-84
2022/07/02 08:48:32;;;;;;;1.38;1.13;;;;;;;20.53;100.00;98953.72;4893713;29;20080;-83
2022/07/02 08:51:01;;;;;;;1.42;1.30;;;;;;;20.64;100.00;98954.53;4870856;29;20040;-82
2022/07/02 08:53:26;;;;;;;1.73;1.35;;;;;;;21.05;100.00;98959.97;4907517;29;20083;-84
2022/07/02 08:55:53;;;;;;;2.08;1.20;;;;;;;20.93;100.00;98951.41;4905462;29;20048;-83
2022/07/02 08:58:19;;;;;;;1.38;1.02;;;;;;;20.76;100.00;98968.44;4909568;29;20063;-82
2022/07/02 09:00:47;;;;;;;1.30;1.20;;;;;;;20.65;100.00;98961.47;4910247;29;20056;-83
2022/07/02 09:03:14;;;;;;;1.27;1.15;;;;;;;20.67;100.00;98964.66;4907587;29;20031;-84
2022/07/02 09:05:41;;;;;;;2.13;1.08;;;;;;;20.63;100.00;98963.59;4888511;29;20051;-81
2022/07/02 09:08:08;;;;;;;4.72;1.30;;;;;;;20.06;100.00;98966.88;4892522;29;20084;-81
2022/07/02 09:10:35;;;;;;;1.33;1.23;;;;;;;20.43;100.00;98959.81;4893547;29;20479;-81
2022/07/02 09:13:02;;;;;;;1.58;1.38;;;;;;;19.79;100.00;98972.28;4910575;29;20076;-82
2022/07/02 09:15:28;;;;;;;1.38;1.27;;;;;;;20.26;100.00;98962.69;4909567;29;20028;-82
2022/07/02 09:17:54;;;;;;;3.55;1.50;;;;;;;20.87;100.00;98963.94;4893411;29;20120;-82
2022/07/02 09:20:19;;;;;;;2.42;1.50;;;;;;;21.41;100.00;98961.81;4888812;29;20550;-81
2022/07/02 09:22:47;;;;;;;2.70;1.40;;;;;;;21.38;100.00;98949.00;4907151;29;20025;-81
2022/07/02 09:25:26;;;;;;;2.70;1.60;;;;;;;21.06;100.00;98942.09;4911345;29;20039;-83
2022/07/02 09:28:03;;;;;;;1.85;1.20;;;;;;;20.17;100.00;98956.25;4890352;29;20047;-81
2022/07/02 09:30:31;;;;;;;1.50;1.40;;;;;;;20.10;99.59;98945.81;4891890;29;20418;-81
2022/07/02 09:35:59;;;;;;;5.13;1.50;;;;;;;19.40;99.73;98955.50;4835228;29;20034;-83
2022/07/02 09:38:25;;;;;;;3.47;1.50;;;;;;;20.01;99.97;98953.50;4888322;29;20059;-82
2022/07/02 09:40:52;;;;;;;2.92;1.58;;;;;;;20.49;99.04;98942.75;4894420;29;20032;-83
2022/07/02 09:43:28;;;;;;;3.28;1.40;;;;;;;20.74;96.06;98948.41;4871737;29;20167;-83
2022/07/02 09:45:55;;;;;;;1.58;1.33;;;;;;;20.01;94.20;98950.06;4905839;29;20028;-82
2022/07/02 09:48:21;;;;;;;3.35;1.50;;;;;;;19.43;96.69;98948.84;4889125;29;20028;-81
2022/07/02 09:50:47;;;;;;;2.80;1.30;;;;;;;20.47;95.51;98962.75;4899322;29;20527;-82
2022/07/02 09:53:12;;;;;;;2.58;1.55;;;;;;;20.34;96.22;98956.84;4893000;29;20039;-81
2022/07/02 09:55:38;;;;;;;2.55;1.58;;;;;;;20.55;94.63;98954.25;4891359;29;20028;-82
2022/07/02 09:58:04;;;;;;;2.33;1.63;;;;;;;20.66;93.77;98953.22;4905131;29;20075;-82
2022/07/02 10:00:32;;;;;;;1.85;1.30;;;;;;;20.93;94.07;98951.41;4911381;29;20436;-82
2022/07/02 10:03:01;;;;;;;1.98;1.40;;;;;;;20.96;90.52;98949.00;4907213;29;20044;-82
2022/07/02 10:05:27;;;;;;;3.45;1.60;;;;;;;20.44;89.67;98968.59;4904745;29;20478;-81
2022/07/02 10:07:55;;;;;;;3.13;1.70;;;;;;;20.95;92.01;98966.09;4903731;29;20044;-82
2022/07/02 10:10:38;;;;;;;2.42;1.52;;;;;;;21.23;91.64;98965.84;4904188;29;20387;-82
2022/07/02 10:13:15;;;;;;;3.00;1.45;;;;;;;21.45;89.91;98952.22;4897666;29;20122;-83
2022/07/02 10:15:47;;;;;;;5.28;1.70;;;;;;;21.42;85.23;98958.09;4909254;29;20120;-82
2022/07/02 10:18:13;;;;;;;3.58;1.50;;;;;;;21.37;86.44;98958.09;4903580;29;20039;-82
2022/07/02 10:20:39;;;;;;;2.60;1.30;;;;;;;21.31;85.87;98954.63;4902628;29;20108;-81
2022/07/02 10:23:06;;;;;;;3.30;1.73;;;;;;;20.75;87.12;98956.16;4903593;29;20028;-81
2022/07/02 10:25:35;;;;;;;4.40;2.28;;;;;;;20.74;88.58;98959.09;4908062;29;20036;-82
2022/07/02 10:28:02;;;;;;;3.03;1.65;;;;;;;21.03;86.59;98970.09;4889395;29;20040;-83
2022/07/02 10:30:33;;;;;;;2.78;1.70;;;;;;;21.26;86.63;98971.47;4909765;29;20032;-82
2022/07/02 10:33:31;;;;;;;3.38;1.70;;;;;;;21.60;88.46;98964.75;4906718;29;20516;-81
2022/07/02 10:35:59;;;;;;;2.40;1.70;;;;;;;21.50;86.03;98949.53;4904194;29;20039;-82
2022/07/02 10:38:37;;;;;;;5.18;1.70;;;;;;;22.09;86.77;98960.66;4910086;29;20513;-83
2022/07/02 10:41:03;;;;;;;4.30;2.03;;;;;;;21.52;83.50;98947.41;4906962;29;20068;-83
2022/07/02 10:43:32;;;;;;;2.92;1.77;;;;;;;21.91;84.67;98938.00;4904367;29;20408;-82
2022/07/02 10:46:13;;;;;;;3.50;1.85;;;;;;;22.28;85.65;98957.38;4906152;29;20036;-84
2022/07/02 10:48:50;;;;;;;2.67;1.83;;;;;;;22.04;83.01;98947.31;4894460;29;20140;-83
2022/07/02 10:51:27;;;;;;;2.47;1.67;;;;;;;22.36;81.45;98962.13;4890212;29;20028;-86
2022/07/02 10:53:57;;;;;;;4.40;1.73;;;;;;;22.26;80.42;98951.50;4904543;29;20040;-84
2022/07/02 10:56:23;;;;;;;2.53;1.92;;;;;;;21.81;80.79;98944.19;4904944;29;20031;-85
2022/07/02 10:58:50;;;;;;;7.90;2.40;;;;;;;20.79;80.41;98953.75;4902277;29;20031;-84
2022/07/02 11:01:19;;;;;;;3.33;2.05;;;;;;;22.04;80.20;98959.88;4890649;29;20037;-85
2022/07/02 11:03:55;;;;;;;3.38;2.17;;;;;;;21.80;80.49;98950.56;4903219;29;20032;-88
2022/07/02 11:06:22;;;;;;;4.55;2.33;;;;;;;21.81;81.43;98960.22;4905837;29;20464;-83
2022/07/02 11:08:51;;;;;;;5.80;2.17;;;;;;;22.85;82.15;98954.41;4906940;29;20039;-85
2022/07/02 11:11:21;;;;;;;4.55;2.33;;;;;;;22.74;77.60;98963.56;4908526;29;20388;-83
2022/07/02 11:14:00;;;;;;;5.53;2.05;;;;;;;23.71;77.60;98957.75;4906261;29;20044;-83
2022/07/02 11:16:39;;;;;;;2.63;2.42;;;;;;;23.79;76.20;98960.59;4903879;29;20111;-85
2022/07/02 11:19:12;;;;;;;4.50;2.38;;;;;;;23.76;77.43;98966.50;4905929;29;20043;-82
2022/07/02 11:21:39;;;;;;;5.60;2.37;;;;;;;23.78;77.95;98968.91;4897251;29;20047;-80
2022/07/02 11:24:06;;;;;;;7.32;2.63;;;;;;;23.92;75.34;98964.47;4907032;29;20760;-80
2022/07/02 11:26:31;;;;;;;3.22;2.50;;;;;;;23.32;76.55;98967.47;4905279;29;20436;-80
2022/07/02 11:29:04;;;;;;;3.90;2.25;;;;;;;23.20;77.29;98963.25;4904633;29;20028;-81
2022/07/02 11:31:31;;;;;;;4.65;2.40;;;;;;;22.52;77.20;98967.44;4901239;29;20526;-85
2022/07/02 11:33:57;;;;;;;4.85;2.22;;;;;;;23.04;77.48;98970.59;4905452;29;20545;-86
2022/07/02 11:36:24;;;;;;;2.67;2.35;;;;;;;22.42;79.44;98962.91;4905796;29;20111;-83
2022/07/02 11:38:50;;;;;;;2.58;2.38;;;;;;;23.64;78.38;98969.56;4903844;29;20039;-82